createdAt,value
2023-01-31T00:01:59.143Z,23.60
2023-01-31T00:04:27.564Z,25.57
2023-01-31T00:06:55.879Z,26.50
2023-01-31T00:09:24.256Z,25.90
2023-01-31T00:11:52.738Z,26.30
2023-01-31T00:14:21.269Z,23.93
2023-01-31T00:16:49.101Z,23.60
2023-01-31T00:19:16.750Z,22.77
2023-01-31T00:21:45.466Z,23.73
2023-01-31T00:24:36.044Z,24.10
2023-01-31T00:27:03.961Z,22.60
2023-01-31T00:29:31.684Z,24.60
2023-01-31T00:31:59.411Z,26.23
2023-01-31T00:34:27.685Z,25.73
2023-01-31T00:36:55.736Z,24.87
2023-01-31T00:39:24.317Z,24.43
2023-01-31T00:41:52.246Z,24.80
2023-01-31T00:44:19.876Z,23.53
2023-01-31T00:46:48.209Z,24.93
2023-01-31T00:49:16.257Z,25.07
2023-01-31T00:51:44.903Z,26.43
2023-01-31T00:54:12.533Z,24.93
2023-01-31T00:56:40.802Z,25.07
2023-01-31T00:59:08.784Z,24.97
2023-01-31T01:01:37.494Z,23.63
2023-01-31T01:04:06.062Z,23.47
2023-01-31T01:06:34.141Z,24.20
2023-01-31T01:09:02.199Z,24.83
2023-01-31T01:11:31.226Z,25.27
2023-01-31T01:13:59.094Z,24.13
2023-01-31T01:16:59.173Z,24.20
2023-01-31T01:19:26.728Z,24.57
2023-01-31T01:21:56.001Z,25.70
2023-01-31T01:24:25.016Z,23.97
2023-01-31T01:26:53.611Z,24.70
2023-01-31T01:29:21.636Z,25.53
2023-01-31T01:31:50.021Z,26.07
2023-01-31T01:34:18.390Z,25.53
2023-01-31T01:36:48.111Z,26.13
2023-01-31T01:39:16.593Z,24.03
2023-01-31T01:41:45.137Z,24.20
2023-01-31T01:44:43.921Z,23.27
2023-01-31T01:47:36.793Z,23.33
2023-01-31T01:50:24.124Z,23.87
2023-01-31T01:52:51.060Z,24.70
2023-01-31T01:55:40.391Z,23.50
2023-01-31T01:58:16.823Z,24.77
2023-01-31T02:00:59.434Z,24.27
2023-01-31T02:03:27.309Z,24.87
2023-01-31T02:06:00.170Z,24.77
2023-01-31T02:08:29.200Z,23.87
2023-01-31T02:10:59.472Z,24.90
2023-01-31T02:13:27.653Z,24.87
2023-01-31T02:15:55.629Z,25.60
2023-01-31T02:18:22.860Z,26.10
2023-01-31T02:20:58.736Z,25.80
2023-01-31T02:23:47.330Z,26.17
2023-01-31T02:26:28.349Z,26.17
2023-01-31T02:29:19.372Z,26.57
2023-01-31T02:31:59.290Z,25.33
2023-01-31T02:35:10.628Z,25.27
2023-01-31T02:38:19.516Z,26.00
2023-01-31T02:41:27.852Z,24.50
2023-01-31T02:44:17.702Z,24.98
2023-01-31T02:47:00.015Z,26.80
2023-01-31T02:49:36.906Z,27.77
2023-01-31T02:52:26.090Z,26.63
2023-01-31T02:55:17.007Z,25.87
2023-01-31T02:57:44.337Z,25.70
2023-01-31T03:00:13.287Z,24.37
2023-01-31T03:02:41.467Z,26.00
2023-01-31T03:05:12.540Z,25.43
2023-01-31T03:07:39.838Z,25.67
2023-01-31T03:10:09.835Z,26.70
2023-01-31T03:12:48.212Z,25.00
2023-01-31T03:16:03.037Z,23.53
2023-01-31T03:19:02.330Z,25.07
2023-01-31T03:21:40.380Z,24.47
2023-01-31T03:24:26.539Z,24.27
2023-01-31T03:26:56.008Z,25.53
2023-01-31T03:29:24.540Z,25.23
2023-01-31T03:31:59.035Z,25.33
2023-01-31T03:34:26.513Z,23.70
2023-01-31T03:37:02.050Z,25.00
2023-01-31T03:39:32.603Z,25.00
2023-01-31T03:42:13.529Z,24.50
2023-01-31T03:45:05.824Z,24.50
2023-01-31T03:47:40.533Z,25.30
2023-01-31T03:50:16.527Z,24.37
2023-01-31T03:52:47.466Z,24.57
2023-01-31T03:55:17.022Z,25.20
2023-01-31T03:57:44.353Z,24.67
2023-01-31T04:00:18.313Z,24.07
2023-01-31T04:02:46.920Z,23.63
2023-01-31T04:05:15.999Z,23.73
2023-01-31T04:07:44.008Z,24.03
2023-01-31T04:10:16.705Z,25.90
2023-01-31T04:12:49.969Z,26.07
2023-01-31T04:15:18.022Z,25.77
2023-01-31T04:17:45.970Z,24.53
2023-01-31T04:20:13.451Z,25.40
2023-01-31T04:22:41.774Z,23.87
2023-01-31T04:25:11.343Z,24.47
2023-01-31T04:27:39.352Z,25.50
2023-01-31T04:30:10.768Z,25.07
2023-01-31T04:32:39.132Z,24.87
2023-01-31T04:35:11.476Z,25.47
2023-01-31T04:37:39.763Z,24.57
2023-01-31T04:40:10.875Z,26.40
2023-01-31T04:42:38.995Z,26.50
2023-01-31T04:45:09.249Z,26.07
2023-01-31T04:47:37.482Z,25.80
2023-01-31T04:50:07.658Z,25.00
2023-01-31T04:52:36.532Z,25.70
2023-01-31T04:55:04.569Z,27.80
2023-01-31T04:57:32.826Z,25.47
2023-01-31T05:00:00.858Z,27.57
2023-01-31T05:02:28.972Z,26.07
2023-01-31T05:04:56.720Z,27.57
2023-01-31T05:07:24.931Z,25.47
2023-01-31T05:09:53.438Z,25.80
2023-01-31T05:12:21.515Z,25.73
2023-01-31T05:14:49.710Z,25.60
2023-01-31T05:17:17.192Z,26.70
2023-01-31T05:19:52.967Z,25.47
2023-01-31T05:22:22.750Z,24.67
2023-01-31T05:24:50.508Z,27.33
2023-01-31T05:27:18.445Z,26.63
2023-01-31T05:29:46.259Z,25.63
2023-01-31T05:32:13.516Z,26.20
2023-01-31T05:34:41.837Z,27.17
2023-01-31T05:37:10.999Z,26.43
2023-01-31T05:39:39.230Z,26.13
2023-01-31T05:42:07.292Z,25.40
2023-01-31T05:44:35.338Z,25.10
2023-01-31T05:47:03.943Z,26.53
2023-01-31T05:49:33.766Z,25.50
2023-01-31T05:52:02.097Z,26.57
2023-01-31T05:54:29.906Z,26.50
2023-01-31T05:56:58.360Z,26.77
2023-01-31T05:59:26.740Z,28.17
2023-01-31T06:01:54.634Z,25.63
2023-01-31T06:04:22.979Z,25.97
2023-01-31T06:06:51.005Z,28.13
2023-01-31T06:09:18.918Z,27.30
2023-01-31T06:11:47.067Z,26.57
2023-01-31T06:14:14.975Z,26.37
2023-01-31T06:16:42.874Z,28.50
2023-01-31T06:19:11.071Z,27.00
2023-01-31T06:21:38.749Z,27.50
2023-01-31T06:24:09.363Z,28.27
2023-01-31T06:26:37.955Z,27.37
2023-01-31T06:29:05.808Z,27.13
2023-01-31T06:31:34.731Z,29.37
2023-01-31T06:34:03.596Z,29.47
2023-01-31T06:36:34.498Z,30.10
2023-01-31T06:39:06.780Z,29.87
2023-01-31T06:41:34.792Z,29.77
2023-01-31T06:44:02.747Z,30.47
2023-01-31T06:46:30.638Z,28.90
2023-01-31T06:49:00.357Z,30.10
2023-01-31T06:51:28.412Z,29.37
2023-01-31T06:53:56.664Z,29.90
2023-01-31T06:56:24.927Z,30.30
2023-01-31T06:58:53.672Z,31.53
2023-01-31T07:01:24.292Z,30.60
2023-01-31T07:03:52.355Z,28.73
2023-01-31T07:06:21.744Z,29.43
2023-01-31T07:08:50.070Z,30.23
2023-01-31T07:11:18.235Z,28.63
2023-01-31T07:13:47.961Z,30.97
2023-01-31T07:16:17.268Z,28.73
2023-01-31T07:18:44.954Z,29.47
2023-01-31T07:21:12.519Z,30.70
2023-01-31T07:23:40.382Z,28.90
2023-01-31T07:26:08.925Z,30.57
2023-01-31T07:28:40.483Z,32.27
2023-01-31T07:31:12.900Z,31.67
2023-01-31T07:33:41.672Z,30.77
2023-01-31T07:36:12.613Z,30.87
2023-01-31T07:38:40.179Z,30.73
2023-01-31T07:41:08.684Z,31.23
2023-01-31T07:43:36.761Z,31.40
2023-01-31T07:46:09.557Z,31.83
2023-01-31T07:48:38.077Z,31.20
2023-01-31T07:51:06.091Z,29.13
2023-01-31T07:53:35.260Z,30.27
2023-01-31T07:56:10.595Z,29.47
2023-01-31T07:58:51.195Z,29.40
2023-01-31T08:01:38.847Z,30.40
2023-01-31T08:04:21.565Z,29.13
2023-01-31T08:06:49.272Z,29.57
2023-01-31T08:09:16.934Z,29.30
2023-01-31T08:11:47.850Z,29.90
2023-01-31T08:14:16.836Z,28.80
2023-01-31T08:16:45.335Z,30.73
2023-01-31T08:19:13.483Z,30.00
2023-01-31T08:21:41.723Z,29.40
2023-01-31T08:24:57.600Z,28.53
2023-01-31T08:30:50.346Z,29.50
2023-01-31T08:33:25.451Z,29.20
2023-01-31T08:35:53.839Z,29.30
2023-01-31T08:38:21.816Z,29.50
2023-01-31T08:40:50.861Z,28.87
2023-01-31T08:43:18.998Z,28.73
2023-01-31T08:45:47.388Z,32.10
2023-01-31T08:48:15.103Z,28.70
2023-01-31T08:50:43.092Z,28.33
2023-01-31T08:53:10.643Z,28.97
2023-01-31T08:55:38.134Z,28.60
2023-01-31T08:58:06.031Z,28.87
2023-01-31T09:00:34.087Z,29.37
2023-01-31T09:03:03.278Z,27.40
2023-01-31T09:05:30.473Z,27.70
2023-01-31T09:07:58.040Z,28.37
2023-01-31T09:10:28.861Z,27.63
2023-01-31T09:12:56.925Z,28.10
2023-01-31T09:15:24.811Z,28.47
2023-01-31T09:17:53.063Z,28.10
2023-01-31T09:20:20.926Z,27.30
2023-01-31T09:22:48.562Z,29.13
2023-01-31T09:25:16.127Z,28.27
2023-01-31T09:27:44.157Z,28.07
2023-01-31T09:30:15.971Z,28.27
2023-01-31T09:32:44.543Z,26.43
2023-01-31T09:35:32.096Z,25.53
2023-01-31T09:37:59.707Z,26.35
2023-01-31T09:40:27.605Z,24.57
2023-01-31T09:42:55.237Z,23.77
2023-01-31T09:45:33.610Z,24.33
2023-01-31T09:48:01.734Z,25.33
2023-01-31T09:50:43.965Z,26.40
2023-01-31T09:53:13.545Z,24.53
2023-01-31T09:55:42.509Z,23.87
2023-01-31T09:58:33.888Z,24.63
2023-01-31T10:01:12.609Z,25.10
2023-01-31T10:03:58.218Z,26.10
2023-01-31T10:06:26.927Z,24.53
2023-01-31T10:08:59.605Z,25.50
2023-01-31T10:11:40.277Z,27.57
2023-01-31T10:14:07.196Z,28.00
2023-01-31T10:16:37.601Z,26.23
2023-01-31T10:19:07.985Z,26.30
2023-01-31T10:21:49.961Z,25.07
2023-01-31T10:24:24.032Z,24.30
2023-01-31T10:26:53.841Z,25.00
2023-01-31T10:29:34.366Z,24.17
2023-01-31T10:32:45.412Z,22.20
2023-01-31T10:35:16.478Z,23.50
2023-01-31T10:38:21.822Z,23.27
2023-01-31T10:40:51.620Z,22.53
2023-01-31T10:43:46.411Z,23.47
2023-01-31T10:46:14.133Z,23.47
2023-01-31T10:48:43.957Z,20.97
2023-01-31T10:51:38.495Z,22.93
2023-01-31T10:54:32.129Z,23.10
2023-01-31T10:57:00.553Z,21.70
2023-01-31T10:59:34.318Z,21.77
2023-01-31T11:02:03.169Z,22.80
2023-01-31T11:04:44.034Z,22.07
2023-01-31T11:07:11.799Z,22.23
2023-01-31T11:10:20.781Z,22.57
2023-01-31T11:13:18.414Z,23.93
2023-01-31T11:15:48.266Z,22.15
2023-01-31T11:18:17.826Z,22.53
2023-01-31T11:20:46.238Z,22.33
2023-01-31T11:23:17.833Z,22.53
2023-01-31T11:25:49.199Z,23.90
2023-01-31T11:28:39.604Z,23.03
2023-01-31T11:31:27.708Z,23.83
2023-01-31T11:34:04.734Z,23.63
2023-01-31T11:39:32.954Z,16.83
2023-01-31T11:42:26.802Z,23.70
2023-01-31T11:44:59.403Z,23.47
2023-01-31T11:47:51.919Z,23.67
2023-01-31T11:50:23.688Z,21.80
2023-01-31T11:53:13.695Z,23.67
2023-01-31T11:55:41.410Z,23.40
2023-01-31T11:58:21.806Z,26.27
2023-01-31T12:01:02.519Z,23.43
2023-01-31T12:04:01.351Z,22.63
2023-01-31T12:06:43.562Z,26.07
2023-01-31T12:09:22.086Z,24.80
2023-01-31T12:12:00.382Z,23.83
2023-01-31T12:14:38.259Z,23.47
2023-01-31T12:17:05.403Z,22.83
2023-01-31T12:20:27.103Z,25.63
2023-01-31T12:23:42.653Z,24.77
2023-01-31T12:26:32.728Z,23.60
2023-01-31T12:29:33.345Z,24.67
2023-01-31T12:32:03.125Z,25.20
2023-01-31T12:35:00.139Z,23.33
2023-01-31T12:38:04.161Z,23.00
2023-01-31T12:40:44.353Z,21.73
2023-01-31T12:46:21.792Z,22.13
2023-01-31T12:49:14.631Z,22.27
2023-01-31T12:52:10.559Z,23.30
2023-01-31T12:54:58.547Z,23.57
2023-01-31T12:58:04.668Z,23.23
2023-01-31T13:00:34.359Z,21.20
2023-01-31T13:03:14.751Z,20.00
2023-01-31T13:06:08.904Z,21.63
2023-01-31T13:08:35.945Z,19.13
2023-01-31T13:11:08.239Z,18.93
2023-01-31T13:13:51.347Z,22.03
2023-01-31T13:16:35.367Z,18.60
2023-01-31T13:19:05.908Z,21.23
2023-01-31T13:21:35.807Z,20.67
2023-01-31T13:24:09.681Z,22.40
2023-01-31T13:26:38.846Z,20.23
2023-01-31T13:29:20.236Z,21.57
2023-01-31T13:31:49.465Z,21.37
2023-01-31T13:34:19.621Z,21.67
2023-01-31T13:36:52.568Z,21.70
2023-01-31T13:39:24.790Z,21.23
2023-01-31T13:41:58.959Z,20.30
2023-01-31T13:44:27.285Z,20.30
2023-01-31T13:46:58.844Z,18.43
2023-01-31T13:49:34.241Z,20.03
2023-01-31T13:52:05.691Z,19.00
2023-01-31T13:54:36.693Z,18.10
2023-01-31T13:57:03.575Z,19.37
2023-01-31T13:59:33.134Z,18.53
2023-01-31T14:02:05.352Z,18.63
2023-01-31T14:04:37.821Z,19.73
2023-01-31T14:07:06.768Z,18.57
2023-01-31T14:09:59.955Z,18.67
2023-01-31T14:12:32.866Z,18.20
2023-01-31T14:15:29.670Z,17.23
2023-01-31T14:17:58.137Z,15.83
2023-01-31T14:20:28.619Z,16.13
2023-01-31T14:23:31.151Z,17.13
2023-01-31T14:25:57.844Z,15.97
2023-01-31T14:28:26.734Z,18.80
2023-01-31T14:30:54.740Z,18.47
2023-01-31T14:33:25.904Z,16.63
2023-01-31T14:36:15.836Z,16.07
2023-01-31T14:38:46.031Z,17.10
2023-01-31T14:44:27.113Z,20.07
2023-01-31T14:47:07.675Z,18.13
2023-01-31T14:50:25.961Z,19.10
2023-01-31T14:53:03.345Z,16.93
2023-01-31T14:56:11.744Z,16.50
2023-01-31T14:58:45.033Z,17.97
2023-01-31T15:01:13.268Z,18.80
2023-01-31T15:03:50.307Z,21.13
2023-01-31T15:06:28.430Z,20.60
2023-01-31T15:09:14.405Z,20.23
2023-01-31T15:19:59.241Z,21.13
2023-01-31T15:27:57.966Z,21.50
2023-01-31T15:30:26.864Z,21.03
2023-01-31T15:33:09.373Z,21.93
2023-01-31T15:35:54.658Z,21.83
2023-01-31T15:38:42.340Z,23.67
2023-01-31T15:41:22.997Z,22.80
2023-01-31T15:44:08.022Z,24.70
2023-01-31T15:46:36.388Z,24.20
2023-01-31T16:44:38.539Z,23.60
2023-01-31T17:32:55.215Z,28.90
2023-01-31T18:00:13.624Z,29.90
2023-01-31T18:05:39.412Z,30.47
2023-01-31T18:08:07.981Z,33.20
2023-01-31T18:10:39.038Z,32.43
2023-01-31T18:13:06.914Z,33.97
2023-01-31T18:15:36.502Z,31.07
2023-01-31T18:18:08.631Z,30.60
2023-01-31T18:20:38.862Z,31.13
2023-01-31T18:23:08.185Z,32.90
2023-01-31T18:25:36.636Z,32.47
2023-01-31T18:30:40.666Z,30.40
2023-01-31T18:33:09.798Z,30.93
2023-01-31T18:35:38.967Z,28.50
2023-01-31T18:38:06.954Z,30.87
2023-01-31T18:40:39.283Z,31.57
2023-01-31T18:43:07.729Z,32.40
2023-01-31T18:45:35.570Z,32.67
2023-01-31T18:56:05.679Z,31.37
2023-01-31T18:58:34.775Z,33.10
2023-01-31T19:01:31.145Z,33.83
2023-01-31T19:03:58.839Z,40.07
2023-01-31T19:06:51.539Z,40.10
2023-01-31T19:09:19.609Z,39.63
2023-01-31T19:11:47.389Z,41.40
2023-01-31T19:14:17.655Z,39.17
2023-01-31T19:16:45.529Z,37.77
2023-01-31T19:19:13.323Z,36.03
2023-01-31T19:21:41.044Z,38.33
2023-01-31T19:26:58.478Z,34.30
2023-01-31T19:29:35.732Z,35.20
2023-01-31T19:32:04.550Z,32.57
2023-01-31T19:34:36.509Z,33.73
2023-01-31T19:37:06.227Z,36.07
2023-01-31T19:39:46.290Z,38.60
2023-01-31T19:42:14.280Z,39.73
2023-01-31T19:44:41.925Z,41.53
2023-01-31T19:47:11.774Z,41.40
2023-01-31T19:49:39.781Z,37.53
2023-01-31T19:52:07.882Z,35.07
2023-01-31T19:54:35.736Z,33.90
2023-01-31T19:57:03.480Z,31.37
2023-01-31T19:59:37.118Z,31.43
2023-01-31T20:02:05.800Z,32.33
2023-01-31T20:04:38.161Z,31.17
2023-01-31T20:07:06.204Z,32.90
2023-01-31T20:09:38.442Z,36.10
2023-01-31T20:12:07.536Z,37.07
2023-01-31T20:14:35.875Z,39.03
2023-01-31T20:17:07.246Z,37.80
2023-01-31T20:19:38.603Z,35.03
2023-01-31T20:22:07.059Z,38.40
2023-01-31T20:24:35.116Z,41.57
2023-01-31T20:27:04.484Z,44.33
2023-01-31T20:29:32.880Z,42.47
2023-01-31T20:32:04.952Z,46.13
2023-01-31T20:34:34.846Z,44.07
2023-01-31T20:47:44.499Z,41.50
2023-01-31T20:50:13.519Z,40.27
2023-01-31T20:52:42.635Z,40.83
2023-01-31T20:55:12.468Z,41.27
2023-01-31T21:11:11.657Z,37.30
2023-01-31T21:13:40.072Z,39.07
2023-01-31T21:16:18.108Z,37.27
2023-01-31T21:18:45.806Z,36.17
2023-01-31T21:21:17.139Z,35.67
2023-01-31T21:23:50.011Z,35.60
